sensor_id;sensor_type;location;lat;lon;timestamp;temperature;humidity
22469;DHT22;11401;50.792;4.352;2022-11-04T00:00:33;19.20;60.80
22469;DHT22;11401;50.792;4.352;2022-11-04T00:03:00;19.20;61.30
22469;DHT22;11401;50.792;4.352;2022-11-04T00:05:27;19.20;61.30
22469;DHT22;11401;50.792;4.352;2022-11-04T00:07:54;19.10;61.70
22469;DHT22;11401;50.792;4.352;2022-11-04T00:10:39;19.10;61.20
22469;DHT22;11401;50.792;4.352;2022-11-04T00:13:27;19.10;61.20
22469;DHT22;11401;50.792;4.352;2022-11-04T00:16:00;19.10;61.10
22469;DHT22;11401;50.792;4.352;2022-11-04T00:18:53;19.10;61.50
22469;DHT22;11401;50.792;4.352;2022-11-04T00:21:20;19.10;61.30
22469;DHT22;11401;50.792;4.352;2022-11-04T00:24:07;19.00;60.70
22469;DHT22;11401;50.792;4.352;2022-11-04T00:26:53;19.00;61.30
22469;DHT22;11401;50.792;4.352;2022-11-04T00:29:39;19.00;61.30
22469;DHT22;11401;50.792;4.352;2022-11-04T00:32:06;18.90;62.10
22469;DHT22;11401;50.792;4.352;2022-11-04T00:34:52;18.80;60.40
22469;DHT22;11401;50.792;4.352;2022-11-04T00:37:19;18.80;61.30
22469;DHT22;11401;50.792;4.352;2022-11-04T00:39:45;18.80;62.00
22469;DHT22;11401;50.792;4.352;2022-11-04T00:42:12;18.80;61.60
22469;DHT22;11401;50.792;4.352;2022-11-04T00:44:39;18.80;62.70
22469;DHT22;11401;50.792;4.352;2022-11-04T00:47:06;18.70;61.50
22469;DHT22;11401;50.792;4.352;2022-11-04T00:49:33;18.70;62.00
22469;DHT22;11401;50.792;4.352;2022-11-04T00:52:00;18.70;62.10
22469;DHT22;11401;50.792;4.352;2022-11-04T00:54:27;18.60;61.80
22469;DHT22;11401;50.792;4.352;2022-11-04T00:56:53;18.60;62.10
22469;DHT22;11401;50.792;4.352;2022-11-04T00:59:20;18.70;62.30
22469;DHT22;11401;50.792;4.352;2022-11-04T01:01:47;18.70;60.60
22469;DHT22;11401;50.792;4.352;2022-11-04T01:04:14;18.70;62.00
22469;DHT22;11401;50.792;4.352;2022-11-04T01:06:41;18.70;61.70
22469;DHT22;11401;50.792;4.352;2022-11-04T01:09:10;18.70;61.80
22469;DHT22;11401;50.792;4.352;2022-11-04T01:11:37;18.70;61.50
22469;DHT22;11401;50.792;4.352;2022-11-04T01:14:04;18.80;62.20
22469;DHT22;11401;50.792;4.352;2022-11-04T01:16:31;18.80;61.50
22469;DHT22;11401;50.792;4.352;2022-11-04T01:18:58;18.70;61.00
22469;DHT22;11401;50.792;4.352;2022-11-04T01:21:25;18.70;61.50
22469;DHT22;11401;50.792;4.352;2022-11-04T01:23:52;18.60;59.80
22469;DHT22;11401;50.792;4.352;2022-11-04T01:26:22;18.50;61.30
22469;DHT22;11401;50.792;4.352;2022-11-04T01:28:51;18.50;61.00
22469;DHT22;11401;50.792;4.352;2022-11-04T01:31:20;18.60;61.50
22469;DHT22;11401;50.792;4.352;2022-11-04T01:33:49;18.50;62.20
22469;DHT22;11401;50.792;4.352;2022-11-04T01:36:16;18.60;61.70
22469;DHT22;11401;50.792;4.352;2022-11-04T01:38:44;18.50;62.00
22469;DHT22;11401;50.792;4.352;2022-11-04T01:41:20;18.40;62.80
22469;DHT22;11401;50.792;4.352;2022-11-04T01:44:44;18.50;61.90
22469;DHT22;11401;50.792;4.352;2022-11-04T01:46:51;18.50;62.50
22469;DHT22;11401;50.792;4.352;2022-11-04T01:49:32;18.40;61.50
22469;DHT22;11401;50.792;4.352;2022-11-04T01:52:11;18.40;61.90
22469;DHT22;11401;50.792;4.352;2022-11-04T01:54:40;18.40;61.00
22469;DHT22;11401;50.792;4.352;2022-11-04T01:57:10;18.40;61.60
22469;DHT22;11401;50.792;4.352;2022-11-04T01:59:41;18.30;61.50
22469;DHT22;11401;50.792;4.352;2022-11-04T02:02:09;18.30;61.50
22469;DHT22;11401;50.792;4.352;2022-11-04T02:04:38;18.40;62.30
22469;DHT22;11401;50.792;4.352;2022-11-04T02:07:08;18.30;61.20
22469;DHT22;11401;50.792;4.352;2022-11-04T02:09:37;18.30;61.70
22469;DHT22;11401;50.792;4.352;2022-11-04T02:12:05;18.20;61.30
22469;DHT22;11401;50.792;4.352;2022-11-04T02:14:51;18.20;62.20
22469;DHT22;11401;50.792;4.352;2022-11-04T02:25:24;18.20;60.90
22469;DHT22;11401;50.792;4.352;2022-11-04T02:31:17;18.20;62.00
22469;DHT22;11401;50.792;4.352;2022-11-04T02:34:12;18.20;62.30
22469;DHT22;11401;50.792;4.352;2022-11-04T02:47:27;18.10;61.70
22469;DHT22;11401;50.792;4.352;2022-11-04T02:50:16;18.10;62.00
22469;DHT22;11401;50.792;4.352;2022-11-04T02:53:00;18.10;61.20
22469;DHT22;11401;50.792;4.352;2022-11-04T02:55:34;18.20;61.70
22469;DHT22;11401;50.792;4.352;2022-11-04T02:58:08;18.20;61.50
22469;DHT22;11401;50.792;4.352;2022-11-04T03:00:38;18.10;61.40
22469;DHT22;11401;50.792;4.352;2022-11-04T03:03:13;18.10;61.80
22469;DHT22;11401;50.792;4.352;2022-11-04T03:05:45;18.20;61.20
22469;DHT22;11401;50.792;4.352;2022-11-04T03:08:29;18.20;61.70
22469;DHT22;11401;50.792;4.352;2022-11-04T03:11:02;18.10;61.50
22469;DHT22;11401;50.792;4.352;2022-11-04T03:13:45;18.10;61.90
22469;DHT22;11401;50.792;4.352;2022-11-04T03:16:18;18.10;61.00
22469;DHT22;11401;50.792;4.352;2022-11-04T03:22:12;18.10;61.70
22469;DHT22;11401;50.792;4.352;2022-11-04T03:24:38;18.10;61.40
22469;DHT22;11401;50.792;4.352;2022-11-04T03:30:08;18.20;62.20
22469;DHT22;11401;50.792;4.352;2022-11-04T03:35:46;18.10;61.20
22469;DHT22;11401;50.792;4.352;2022-11-04T03:38:13;18.10;61.40
22469;DHT22;11401;50.792;4.352;2022-11-04T03:40:40;18.20;61.90
22469;DHT22;11401;50.792;4.352;2022-11-04T03:43:14;18.20;61.50
22469;DHT22;11401;50.792;4.352;2022-11-04T03:45:41;18.20;61.40
22469;DHT22;11401;50.792;4.352;2022-11-04T03:48:09;18.20;61.50
22469;DHT22;11401;50.792;4.352;2022-11-04T03:50:47;18.20;61.50
22469;DHT22;11401;50.792;4.352;2022-11-04T03:53:21;18.20;61.30
22469;DHT22;11401;50.792;4.352;2022-11-04T04:03:54;18.20;61.40
22469;DHT22;11401;50.792;4.352;2022-11-04T04:06:27;18.30;61.20
22469;DHT22;11401;50.792;4.352;2022-11-04T04:14:37;18.20;61.70
22469;DHT22;11401;50.792;4.352;2022-11-04T04:19:56;18.20;61.30
22469;DHT22;11401;50.792;4.352;2022-11-04T04:22:42;18.20;61.70
22469;DHT22;11401;50.792;4.352;2022-11-04T04:25:11;18.10;61.50
22469;DHT22;11401;50.792;4.352;2022-11-04T04:27:59;18.20;61.80
22469;DHT22;11401;50.792;4.352;2022-11-04T04:30:27;18.20;61.60
22469;DHT22;11401;50.792;4.352;2022-11-04T04:33:07;18.20;61.90
22469;DHT22;11401;50.792;4.352;2022-11-04T04:35:41;18.20;61.90
22469;DHT22;11401;50.792;4.352;2022-11-04T04:38:22;18.20;61.60
22469;DHT22;11401;50.792;4.352;2022-11-04T04:41:29;18.30;61.70
22469;DHT22;11401;50.792;4.352;2022-11-04T04:44:22;18.30;61.70
22469;DHT22;11401;50.792;4.352;2022-11-04T04:47:08;18.30;62.10
22469;DHT22;11401;50.792;4.352;2022-11-04T04:49:36;18.30;62.50
22469;DHT22;11401;50.792;4.352;2022-11-04T04:52:05;18.30;62.60
22469;DHT22;11401;50.792;4.352;2022-11-04T04:54:32;18.30;62.70
22469;DHT22;11401;50.792;4.352;2022-11-04T04:56:59;18.30;62.40
22469;DHT22;11401;50.792;4.352;2022-11-04T04:59:26;18.30;62.60
22469;DHT22;11401;50.792;4.352;2022-11-04T05:01:53;18.40;62.50
22469;DHT22;11401;50.792;4.352;2022-11-04T05:04:20;18.40;62.40
22469;DHT22;11401;50.792;4.352;2022-11-04T05:06:47;18.40;62.30
22469;DHT22;11401;50.792;4.352;2022-11-04T05:09:13;18.40;62.60
22469;DHT22;11401;50.792;4.352;2022-11-04T05:11:40;18.40;62.30
22469;DHT22;11401;50.792;4.352;2022-11-04T05:14:07;18.40;62.30
22469;DHT22;11401;50.792;4.352;2022-11-04T05:16:34;18.40;62.10
22469;DHT22;11401;50.792;4.352;2022-11-04T05:19:06;18.50;62.60
22469;DHT22;11401;50.792;4.352;2022-11-04T05:21:34;18.40;62.40
22469;DHT22;11401;50.792;4.352;2022-11-04T05:24:00;18.50;62.60
22469;DHT22;11401;50.792;4.352;2022-11-04T05:26:27;18.50;62.50
22469;DHT22;11401;50.792;4.352;2022-11-04T05:28:54;18.50;62.30
22469;DHT22;11401;50.792;4.352;2022-11-04T05:31:21;18.50;62.20
22469;DHT22;11401;50.792;4.352;2022-11-04T05:33:48;18.50;62.50
22469;DHT22;11401;50.792;4.352;2022-11-04T05:36:16;18.50;62.60
22469;DHT22;11401;50.792;4.352;2022-11-04T05:38:43;18.40;62.30
22469;DHT22;11401;50.792;4.352;2022-11-04T05:41:11;18.50;62.60
22469;DHT22;11401;50.792;4.352;2022-11-04T05:43:52;18.50;62.60
22469;DHT22;11401;50.792;4.352;2022-11-04T05:46:20;18.50;62.40
22469;DHT22;11401;50.792;4.352;2022-11-04T05:48:47;18.50;62.40
22469;DHT22;11401;50.792;4.352;2022-11-04T05:51:14;18.50;62.40
22469;DHT22;11401;50.792;4.352;2022-11-04T05:53:41;18.50;62.40
22469;DHT22;11401;50.792;4.352;2022-11-04T05:56:08;18.50;62.00
22469;DHT22;11401;50.792;4.352;2022-11-04T05:58:35;18.50;62.30
22469;DHT22;11401;50.792;4.352;2022-11-04T06:01:34;18.50;62.50
22469;DHT22;11401;50.792;4.352;2022-11-04T06:04:02;18.50;62.40
22469;DHT22;11401;50.792;4.352;2022-11-04T06:06:35;18.50;62.10
22469;DHT22;11401;50.792;4.352;2022-11-04T06:09:02;18.50;62.30
22469;DHT22;11401;50.792;4.352;2022-11-04T06:11:31;18.50;62.60
22469;DHT22;11401;50.792;4.352;2022-11-04T06:13:59;18.50;62.40
22469;DHT22;11401;50.792;4.352;2022-11-04T06:16:26;18.50;62.70
22469;DHT22;11401;50.792;4.352;2022-11-04T06:18:53;18.50;62.70
22469;DHT22;11401;50.792;4.352;2022-11-04T06:21:26;18.50;62.20
22469;DHT22;11401;50.792;4.352;2022-11-04T06:23:54;18.30;62.40
22469;DHT22;11401;50.792;4.352;2022-11-04T06:26:27;18.30;63.10
22469;DHT22;11401;50.792;4.352;2022-11-04T06:28:55;18.30;63.40
22469;DHT22;11401;50.792;4.352;2022-11-04T06:31:22;18.20;63.40
22469;DHT22;11401;50.792;4.352;2022-11-04T06:33:49;18.20;63.70
22469;DHT22;11401;50.792;4.352;2022-11-04T06:36:16;18.20;62.80
22469;DHT22;11401;50.792;4.352;2022-11-04T06:38:44;18.00;63.30
22469;DHT22;11401;50.792;4.352;2022-11-04T06:41:13;17.80;64.10
22469;DHT22;11401;50.792;4.352;2022-11-04T06:43:40;17.70;64.90
22469;DHT22;11401;50.792;4.352;2022-11-04T06:48:50;17.60;65.00
22469;DHT22;11401;50.792;4.352;2022-11-04T06:51:17;17.60;65.20
22469;DHT22;11401;50.792;4.352;2022-11-04T06:53:44;17.60;65.40
22469;DHT22;11401;50.792;4.352;2022-11-04T06:56:11;17.60;65.40
22469;DHT22;11401;50.792;4.352;2022-11-04T06:58:38;17.60;65.40
22469;DHT22;11401;50.792;4.352;2022-11-04T07:01:05;17.50;65.30
22469;DHT22;11401;50.792;4.352;2022-11-04T07:03:41;17.60;65.70
22469;DHT22;11401;50.792;4.352;2022-11-04T07:06:09;17.60;65.30
22469;DHT22;11401;50.792;4.352;2022-11-04T07:08:36;17.50;65.30
22469;DHT22;11401;50.792;4.352;2022-11-04T07:11:03;17.60;65.70
22469;DHT22;11401;50.792;4.352;2022-11-04T07:13:30;17.60;65.40
22469;DHT22;11401;50.792;4.352;2022-11-04T07:15:57;17.60;65.60
22469;DHT22;11401;50.792;4.352;2022-11-04T07:18:25;17.50;65.20
22469;DHT22;11401;50.792;4.352;2022-11-04T07:20:52;17.50;65.10
22469;DHT22;11401;50.792;4.352;2022-11-04T07:23:19;17.50;65.30
22469;DHT22;11401;50.792;4.352;2022-11-04T07:25:47;17.40;65.40
22469;DHT22;11401;50.792;4.352;2022-11-04T07:28:14;17.30;65.80
22469;DHT22;11401;50.792;4.352;2022-11-04T07:30:41;17.30;66.00
22469;DHT22;11401;50.792;4.352;2022-11-04T07:33:08;17.30;66.50
22469;DHT22;11401;50.792;4.352;2022-11-04T07:35:35;17.30;66.50
22469;DHT22;11401;50.792;4.352;2022-11-04T07:38:02;17.30;66.20
22469;DHT22;11401;50.792;4.352;2022-11-04T07:40:30;17.30;66.50
22469;DHT22;11401;50.792;4.352;2022-11-04T07:43:00;17.30;66.70
22469;DHT22;11401;50.792;4.352;2022-11-04T07:45:35;17.30;66.30
22469;DHT22;11401;50.792;4.352;2022-11-04T07:48:02;17.30;66.60
22469;DHT22;11401;50.792;4.352;2022-11-04T07:50:29;17.40;66.50
22469;DHT22;11401;50.792;4.352;2022-11-04T07:52:58;17.40;66.30
22469;DHT22;11401;50.792;4.352;2022-11-04T07:55:25;17.40;66.30
22469;DHT22;11401;50.792;4.352;2022-11-04T07:57:53;17.30;66.40
22469;DHT22;11401;50.792;4.352;2022-11-04T08:00:20;17.40;66.50
22469;DHT22;11401;50.792;4.352;2022-11-04T08:02:47;17.40;66.50
22469;DHT22;11401;50.792;4.352;2022-11-04T08:05:15;17.30;66.60
22469;DHT22;11401;50.792;4.352;2022-11-04T08:07:42;17.30;66.80
22469;DHT22;11401;50.792;4.352;2022-11-04T08:10:09;17.20;66.90
22469;DHT22;11401;50.792;4.352;2022-11-04T08:12:36;17.20;67.10
22469;DHT22;11401;50.792;4.352;2022-11-04T08:15:04;17.20;67.10
22469;DHT22;11401;50.792;4.352;2022-11-04T08:17:31;17.20;67.30
22469;DHT22;11401;50.792;4.352;2022-11-04T08:19:58;17.10;67.30
22469;DHT22;11401;50.792;4.352;2022-11-04T08:22:25;17.10;67.60
22469;DHT22;11401;50.792;4.352;2022-11-04T08:24:58;17.20;67.40
22469;DHT22;11401;50.792;4.352;2022-11-04T08:27:25;17.20;67.40
22469;DHT22;11401;50.792;4.352;2022-11-04T08:29:52;17.20;67.30
22469;DHT22;11401;50.792;4.352;2022-11-04T08:32:19;17.20;67.10
22469;DHT22;11401;50.792;4.352;2022-11-04T08:34:46;17.10;66.60
22469;DHT22;11401;50.792;4.352;2022-11-04T08:37:14;17.10;66.90
22469;DHT22;11401;50.792;4.352;2022-11-04T08:39:41;17.00;67.50
22469;DHT22;11401;50.792;4.352;2022-11-04T08:42:09;17.10;68.00
22469;DHT22;11401;50.792;4.352;2022-11-04T08:44:36;17.20;66.50
22469;DHT22;11401;50.792;4.352;2022-11-04T08:47:05;17.30;65.00
22469;DHT22;11401;50.792;4.352;2022-11-04T08:49:37;17.30;64.20
22469;DHT22;11401;50.792;4.352;2022-11-04T08:52:04;17.30;64.70
22469;DHT22;11401;50.792;4.352;2022-11-04T08:54:31;17.40;64.00
22469;DHT22;11401;50.792;4.352;2022-11-04T08:56:58;17.40;64.30
22469;DHT22;11401;50.792;4.352;2022-11-04T08:59:25;17.50;64.50
22469;DHT22;11401;50.792;4.352;2022-11-04T09:01:52;17.60;64.90
22469;DHT22;11401;50.792;4.352;2022-11-04T09:04:19;17.60;64.10
22469;DHT22;11401;50.792;4.352;2022-11-04T09:06:47;17.60;64.60
22469;DHT22;11401;50.792;4.352;2022-11-04T09:09:15;17.60;64.80
22469;DHT22;11401;50.792;4.352;2022-11-04T09:11:44;18.00;66.10
22469;DHT22;11401;50.792;4.352;2022-11-04T09:14:11;18.20;63.90
22469;DHT22;11401;50.792;4.352;2022-11-04T09:16:40;18.00;63.50
22469;DHT22;11401;50.792;4.352;2022-11-04T09:19:07;18.10;64.50
22469;DHT22;11401;50.792;4.352;2022-11-04T09:21:34;18.00;64.40
22469;DHT22;11401;50.792;4.352;2022-11-04T09:24:01;18.10;65.00
22469;DHT22;11401;50.792;4.352;2022-11-04T09:26:28;18.10;64.20
22469;DHT22;11401;50.792;4.352;2022-11-04T09:28:56;18.10;64.20
22469;DHT22;11401;50.792;4.352;2022-11-04T09:31:26;18.10;64.30
22469;DHT22;11401;50.792;4.352;2022-11-04T09:33:54;18.10;64.00
22469;DHT22;11401;50.792;4.352;2022-11-04T09:36:21;18.20;64.30
22469;DHT22;11401;50.792;4.352;2022-11-04T09:38:49;18.10;63.90
22469;DHT22;11401;50.792;4.352;2022-11-04T09:46:52;18.20;64.10
22469;DHT22;11401;50.792;4.352;2022-11-04T09:49:21;18.20;64.00
22469;DHT22;11401;50.792;4.352;2022-11-04T09:51:49;18.20;64.30
22469;DHT22;11401;50.792;4.352;2022-11-04T09:54:24;18.20;64.10
22469;DHT22;11401;50.792;4.352;2022-11-04T09:56:54;18.20;64.10
22469;DHT22;11401;50.792;4.352;2022-11-04T09:59:26;18.20;64.00
22469;DHT22;11401;50.792;4.352;2022-11-04T10:23:54;18.30;64.30
22469;DHT22;11401;50.792;4.352;2022-11-04T10:26:41;18.40;64.00
22469;DHT22;11401;50.792;4.352;2022-11-04T10:29:49;18.30;63.90
22469;DHT22;11401;50.792;4.352;2022-11-04T10:32:25;18.40;64.10
22469;DHT22;11401;50.792;4.352;2022-11-04T10:35:01;18.30;64.10
22469;DHT22;11401;50.792;4.352;2022-11-04T10:37:29;18.40;63.40
22469;DHT22;11401;50.792;4.352;2022-11-04T10:40:18;18.40;63.70
22469;DHT22;11401;50.792;4.352;2022-11-04T10:42:46;18.40;63.70
22469;DHT22;11401;50.792;4.352;2022-11-04T10:45:14;18.40;64.30
22469;DHT22;11401;50.792;4.352;2022-11-04T10:47:54;18.40;63.50
22469;DHT22;11401;50.792;4.352;2022-11-04T10:53:16;18.40;64.10
22469;DHT22;11401;50.792;4.352;2022-11-04T10:56:02;18.40;63.70
22469;DHT22;11401;50.792;4.352;2022-11-04T10:58:31;18.50;63.10
22469;DHT22;11401;50.792;4.352;2022-11-04T11:00:59;18.50;63.20
22469;DHT22;11401;50.792;4.352;2022-11-04T11:03:46;18.50;63.70
22469;DHT22;11401;50.792;4.352;2022-11-04T11:08:41;18.40;63.40
22469;DHT22;11401;50.792;4.352;2022-11-04T11:11:12;18.40;63.30
22469;DHT22;11401;50.792;4.352;2022-11-04T11:13:43;18.40;63.40
22469;DHT22;11401;50.792;4.352;2022-11-04T11:16:16;18.40;63.20
22469;DHT22;11401;50.792;4.352;2022-11-04T11:18:44;18.50;62.70
22469;DHT22;11401;50.792;4.352;2022-11-04T11:21:15;18.50;63.00
22469;DHT22;11401;50.792;4.352;2022-11-04T11:23:47;18.50;63.10
22469;DHT22;11401;50.792;4.352;2022-11-04T11:26:19;18.50;63.00
22469;DHT22;11401;50.792;4.352;2022-11-04T11:28:52;18.50;62.50
22469;DHT22;11401;50.792;4.352;2022-11-04T11:31:25;18.50;62.80
22469;DHT22;11401;50.792;4.352;2022-11-04T11:34:13;18.40;62.80
22469;DHT22;11401;50.792;4.352;2022-11-04T11:36:41;18.50;62.70
22469;DHT22;11401;50.792;4.352;2022-11-04T11:42:10;18.50;63.10
22469;DHT22;11401;50.792;4.352;2022-11-04T11:44:40;18.50;62.30
22469;DHT22;11401;50.792;4.352;2022-11-04T11:50:16;18.40;62.70
22469;DHT22;11401;50.792;4.352;2022-11-04T11:52:45;18.40;62.20
22469;DHT22;11401;50.792;4.352;2022-11-04T12:04:17;18.60;62.00
22469;DHT22;11401;50.792;4.352;2022-11-04T12:13:25;18.60;61.80
22469;DHT22;11401;50.792;4.352;2022-11-04T12:19:17;18.60;61.60
22469;DHT22;11401;50.792;4.352;2022-11-04T12:22:05;18.60;61.00
22469;DHT22;11401;50.792;4.352;2022-11-04T12:25:38;18.60;61.80
22469;DHT22;11401;50.792;4.352;2022-11-04T12:28:01;18.60;61.30
22469;DHT22;11401;50.792;4.352;2022-11-04T12:30:36;18.60;61.20
22469;DHT22;11401;50.792;4.352;2022-11-04T12:36:32;18.70;61.30
22469;DHT22;11401;50.792;4.352;2022-11-04T12:50:03;18.70;60.90
22469;DHT22;11401;50.792;4.352;2022-11-04T12:52:56;18.60;61.10
22469;DHT22;11401;50.792;4.352;2022-11-04T12:55:41;18.60;61.80
22469;DHT22;11401;50.792;4.352;2022-11-04T13:00:51;18.70;61.40
22469;DHT22;11401;50.792;4.352;2022-11-04T13:03:32;18.60;61.40
22469;DHT22;11401;50.792;4.352;2022-11-04T13:06:09;18.70;62.20
22469;DHT22;11401;50.792;4.352;2022-11-04T13:08:51;18.60;61.70
22469;DHT22;11401;50.792;4.352;2022-11-04T13:11:27;18.80;61.90
22469;DHT22;11401;50.792;4.352;2022-11-04T13:14:25;18.80;61.40
22469;DHT22;11401;50.792;4.352;2022-11-04T13:17:02;18.80;60.90
22469;DHT22;11401;50.792;4.352;2022-11-04T13:19:39;18.70;61.50
22469;DHT22;11401;50.792;4.352;2022-11-04T13:22:21;18.80;60.90
22469;DHT22;11401;50.792;4.352;2022-11-04T13:25:13;18.80;60.90
22469;DHT22;11401;50.792;4.352;2022-11-04T13:27:45;18.70;61.00
22469;DHT22;11401;50.792;4.352;2022-11-04T13:32:56;18.80;60.70
22469;DHT22;11401;50.792;4.352;2022-11-04T13:35:43;18.80;61.40
22469;DHT22;11401;50.792;4.352;2022-11-04T13:38:21;18.80;60.80
22469;DHT22;11401;50.792;4.352;2022-11-04T13:43:51;18.80;60.70
22469;DHT22;11401;50.792;4.352;2022-11-04T13:46:24;18.80;61.00
22469;DHT22;11401;50.792;4.352;2022-11-04T13:51:42;18.80;60.80
22469;DHT22;11401;50.792;4.352;2022-11-04T13:54:40;18.80;61.00
22469;DHT22;11401;50.792;4.352;2022-11-04T13:59:40;18.80;60.80
22469;DHT22;11401;50.792;4.352;2022-11-04T14:04:38;18.80;61.20
22469;DHT22;11401;50.792;4.352;2022-11-04T14:07:08;18.80;61.30
22469;DHT22;11401;50.792;4.352;2022-11-04T14:14:54;18.80;61.30
22469;DHT22;11401;50.792;4.352;2022-11-04T14:31:02;18.80;60.30
22469;DHT22;11401;50.792;4.352;2022-11-04T14:33:55;18.80;60.50
22469;DHT22;11401;50.792;4.352;2022-11-04T14:36:24;18.80;60.10
22469;DHT22;11401;50.792;4.352;2022-11-04T14:47:05;18.70;59.10
22469;DHT22;11401;50.792;4.352;2022-11-04T14:52:26;18.80;59.10
22469;DHT22;11401;50.792;4.352;2022-11-04T14:54:57;18.70;58.80
22469;DHT22;11401;50.792;4.352;2022-11-04T14:57:29;18.60;59.20
22469;DHT22;11401;50.792;4.352;2022-11-04T15:00:34;18.50;59.60
22469;DHT22;11401;50.792;4.352;2022-11-04T15:05:54;18.70;59.40
22469;DHT22;11401;50.792;4.352;2022-11-04T15:08:28;18.60;59.30
22469;DHT22;11401;50.792;4.352;2022-11-04T15:11:11;18.50;59.90
22469;DHT22;11401;50.792;4.352;2022-11-04T15:13:55;18.40;59.90
22469;DHT22;11401;50.792;4.352;2022-11-04T15:16:28;18.60;60.80
22469;DHT22;11401;50.792;4.352;2022-11-04T15:18:57;18.60;60.00
22469;DHT22;11401;50.792;4.352;2022-11-04T15:21:25;18.50;60.20
22469;DHT22;11401;50.792;4.352;2022-11-04T15:23:53;18.50;60.60
22469;DHT22;11401;50.792;4.352;2022-11-04T15:26:27;18.40;60.60
22469;DHT22;11401;50.792;4.352;2022-11-04T15:28:59;18.40;60.70
22469;DHT22;11401;50.792;4.352;2022-11-04T15:31:29;18.40;60.30
22469;DHT22;11401;50.792;4.352;2022-11-04T15:34:04;18.30;60.80
22469;DHT22;11401;50.792;4.352;2022-11-04T15:36:40;18.30;60.80
22469;DHT22;11401;50.792;4.352;2022-11-04T15:41:40;18.20;60.90
22469;DHT22;11401;50.792;4.352;2022-11-04T15:44:28;18.20;61.00
22469;DHT22;11401;50.792;4.352;2022-11-04T15:49:29;18.20;60.90
22469;DHT22;11401;50.792;4.352;2022-11-04T15:52:04;18.20;60.70
22469;DHT22;11401;50.792;4.352;2022-11-04T15:54:35;18.20;60.40
22469;DHT22;11401;50.792;4.352;2022-11-04T15:57:14;18.20;60.90
22469;DHT22;11401;50.792;4.352;2022-11-04T16:02:48;18.30;60.50
22469;DHT22;11401;50.792;4.352;2022-11-04T16:05:27;18.20;60.90
22469;DHT22;11401;50.792;4.352;2022-11-04T16:10:39;18.20;61.10
22469;DHT22;11401;50.792;4.352;2022-11-04T16:18:39;18.10;60.70
22469;DHT22;11401;50.792;4.352;2022-11-04T16:21:20;18.00;60.70
22469;DHT22;11401;50.792;4.352;2022-11-04T16:23:54;17.90;60.90
22469;DHT22;11401;50.792;4.352;2022-11-04T16:26:28;17.90;61.40
22469;DHT22;11401;50.792;4.352;2022-11-04T16:28:57;17.80;61.20
22469;DHT22;11401;50.792;4.352;2022-11-04T16:31:33;17.90;61.80
22469;DHT22;11401;50.792;4.352;2022-11-04T16:34:01;17.90;61.30
22469;DHT22;11401;50.792;4.352;2022-11-04T16:36:28;17.90;61.70
22469;DHT22;11401;50.792;4.352;2022-11-04T16:39:02;17.90;62.00
22469;DHT22;11401;50.792;4.352;2022-11-04T16:41:34;18.00;61.70
22469;DHT22;11401;50.792;4.352;2022-11-04T16:44:03;17.90;61.30
22469;DHT22;11401;50.792;4.352;2022-11-04T16:46:33;18.00;61.20
22469;DHT22;11401;50.792;4.352;2022-11-04T16:49:00;17.90;61.70
22469;DHT22;11401;50.792;4.352;2022-11-04T16:51:29;17.90;61.40
22469;DHT22;11401;50.792;4.352;2022-11-04T16:53:58;17.80;61.80
22469;DHT22;11401;50.792;4.352;2022-11-04T16:56:25;17.90;62.00
22469;DHT22;11401;50.792;4.352;2022-11-04T16:58:52;17.90;61.60
22469;DHT22;11401;50.792;4.352;2022-11-04T17:01:19;17.90;61.90
22469;DHT22;11401;50.792;4.352;2022-11-04T17:03:47;17.80;61.90
22469;DHT22;11401;50.792;4.352;2022-11-04T17:06:15;17.80;62.10
22469;DHT22;11401;50.792;4.352;2022-11-04T17:08:42;17.80;62.10
22469;DHT22;11401;50.792;4.352;2022-11-04T17:11:09;17.80;62.10
22469;DHT22;11401;50.792;4.352;2022-11-04T17:13:37;17.70;62.20
22469;DHT22;11401;50.792;4.352;2022-11-04T17:16:10;17.70;62.20
22469;DHT22;11401;50.792;4.352;2022-11-04T17:18:38;17.70;62.10
22469;DHT22;11401;50.792;4.352;2022-11-04T17:21:07;17.70;62.70
22469;DHT22;11401;50.792;4.352;2022-11-04T17:23:35;17.70;62.70
22469;DHT22;11401;50.792;4.352;2022-11-04T17:26:02;17.60;62.90
22469;DHT22;11401;50.792;4.352;2022-11-04T17:28:29;17.60;63.70
22469;DHT22;11401;50.792;4.352;2022-11-04T17:30:58;17.60;63.20
22469;DHT22;11401;50.792;4.352;2022-11-04T17:33:27;17.60;63.20
22469;DHT22;11401;50.792;4.352;2022-11-04T17:35:53;17.60;63.20
22469;DHT22;11401;50.792;4.352;2022-11-04T17:38:21;17.60;62.90
22469;DHT22;11401;50.792;4.352;2022-11-04T17:40:48;17.50;63.30
22469;DHT22;11401;50.792;4.352;2022-11-04T17:43:34;17.50;63.40
22469;DHT22;11401;50.792;4.352;2022-11-04T17:46:19;17.40;63.70
22469;DHT22;11401;50.792;4.352;2022-11-04T17:51:35;17.40;63.90
22469;DHT22;11401;50.792;4.352;2022-11-04T17:54:03;17.30;63.80
22469;DHT22;11401;50.792;4.352;2022-11-04T17:56:30;17.30;64.00
22469;DHT22;11401;50.792;4.352;2022-11-04T17:58:59;17.20;64.10
22469;DHT22;11401;50.792;4.352;2022-11-04T18:01:27;17.20;64.30
22469;DHT22;11401;50.792;4.352;2022-11-04T18:03:54;17.10;64.70
22469;DHT22;11401;50.792;4.352;2022-11-04T18:06:21;17.00;65.20
22469;DHT22;11401;50.792;4.352;2022-11-04T18:08:52;17.00;65.30
22469;DHT22;11401;50.792;4.352;2022-11-04T18:11:20;17.00;65.30
22469;DHT22;11401;50.792;4.352;2022-11-04T18:14:06;17.00;65.30
22469;DHT22;11401;50.792;4.352;2022-11-04T18:16:40;17.00;65.20
22469;DHT22;11401;50.792;4.352;2022-11-04T18:19:08;17.00;65.30
22469;DHT22;11401;50.792;4.352;2022-11-04T18:21:35;17.00;65.00
22469;DHT22;11401;50.792;4.352;2022-11-04T18:24:03;16.90;65.00
22469;DHT22;11401;50.792;4.352;2022-11-04T18:26:30;16.80;65.50
22469;DHT22;11401;50.792;4.352;2022-11-04T18:28:57;16.80;65.70
22469;DHT22;11401;50.792;4.352;2022-11-04T18:31:32;16.80;65.60
22469;DHT22;11401;50.792;4.352;2022-11-04T18:34:01;16.70;65.50
22469;DHT22;11401;50.792;4.352;2022-11-04T18:36:29;16.60;66.00
22469;DHT22;11401;50.792;4.352;2022-11-04T18:38:56;16.50;65.80
22469;DHT22;11401;50.792;4.352;2022-11-04T18:41:24;16.50;66.30
22469;DHT22;11401;50.792;4.352;2022-11-04T18:43:51;16.50;65.80
22469;DHT22;11401;50.792;4.352;2022-11-04T18:46:18;16.40;66.20
22469;DHT22;11401;50.792;4.352;2022-11-04T18:48:49;16.40;66.20
22469;DHT22;11401;50.792;4.352;2022-11-04T18:51:18;16.40;66.30
22469;DHT22;11401;50.792;4.352;2022-11-04T18:53:47;16.30;66.70
22469;DHT22;11401;50.792;4.352;2022-11-04T18:56:16;16.20;66.40
22469;DHT22;11401;50.792;4.352;2022-11-04T18:58:43;16.20;66.80
22469;DHT22;11401;50.792;4.352;2022-11-04T19:01:18;16.20;67.40
22469;DHT22;11401;50.792;4.352;2022-11-04T19:03:46;16.20;67.60
22469;DHT22;11401;50.792;4.352;2022-11-04T19:06:17;16.30;68.10
22469;DHT22;11401;50.792;4.352;2022-11-04T19:08:44;16.30;66.70